createdAt,value
2022-10-07T00:00:51.875Z,74.49
2022-10-07T00:03:20.233Z,74.49
2022-10-07T00:05:47.302Z,74.45
2022-10-07T00:08:14.210Z,74.45
2022-10-07T00:10:42.287Z,74.34
2022-10-07T00:13:12.305Z,74.24
2022-10-07T00:15:39.465Z,74.08
2022-10-07T00:18:06.733Z,74.29
2022-10-07T00:20:40.256Z,74.13
2022-10-07T00:23:08.165Z,74.11
2022-10-07T00:25:38.431Z,74.19
2022-10-07T00:28:05.703Z,74.07
2022-10-07T00:30:32.830Z,73.99
2022-10-07T00:32:59.924Z,73.97
2022-10-07T00:35:26.708Z,73.92
2022-10-07T00:37:53.848Z,73.88
2022-10-07T00:40:20.536Z,73.69
2022-10-07T00:42:47.404Z,73.59
2022-10-07T00:45:17.372Z,73.49
2022-10-07T00:47:49.222Z,73.00
2022-10-07T00:50:21.383Z,73.10
2022-10-07T00:52:52.073Z,72.98
2022-10-07T00:55:21.741Z,72.59
2022-10-07T00:57:49.188Z,72.60
2022-10-07T01:00:16.179Z,72.59
2022-10-07T01:02:43.155Z,72.60
2022-10-07T01:05:10.810Z,72.48
2022-10-07T01:07:38.263Z,72.26
2022-10-07T01:10:05.692Z,72.52
2022-10-07T01:12:41.331Z,72.26
2022-10-07T01:15:34.611Z,72.07
2022-10-07T01:18:31.485Z,72.64
2022-10-07T01:21:12.015Z,72.81
2022-10-07T01:23:56.956Z,73.05
2022-10-07T01:26:33.948Z,73.19
2022-10-07T01:29:08.559Z,73.40
2022-10-07T01:31:39.123Z,73.85
2022-10-07T01:34:07.746Z,74.06
2022-10-07T01:36:37.056Z,73.95
2022-10-07T01:39:09.275Z,73.77
2022-10-07T01:41:37.013Z,73.57
2022-10-07T01:44:04.069Z,73.51
2022-10-07T01:46:31.307Z,73.56
2022-10-07T01:49:01.123Z,73.31
2022-10-07T01:51:29.937Z,73.60
2022-10-07T01:54:05.843Z,73.34
2022-10-07T01:56:58.674Z,72.91
2022-10-07T01:59:58.341Z,73.15
2022-10-07T02:02:28.240Z,72.97
2022-10-07T02:05:10.403Z,73.14
2022-10-07T02:08:05.137Z,73.15
2022-10-07T02:10:50.640Z,73.25
2022-10-07T02:13:35.281Z,73.35
2022-10-07T02:16:33.390Z,73.38
2022-10-07T02:19:04.215Z,73.18
2022-10-07T02:21:32.759Z,72.96
2022-10-07T02:24:00.785Z,73.14
2022-10-07T02:26:28.240Z,73.11
2022-10-07T02:28:56.531Z,73.29
2022-10-07T02:31:30.475Z,73.46
2022-10-07T02:33:59.778Z,73.29
2022-10-07T02:36:30.956Z,73.32
2022-10-07T02:38:58.500Z,73.21
2022-10-07T02:41:50.965Z,73.25
2022-10-07T02:44:28.253Z,73.40
2022-10-07T02:47:10.768Z,73.52
2022-10-07T02:49:40.005Z,73.42
2022-10-07T02:52:09.495Z,73.45
2022-10-07T02:54:48.431Z,73.79
2022-10-07T02:57:17.972Z,73.82
2022-10-07T02:59:47.525Z,73.60
2022-10-07T03:02:21.009Z,73.68
2022-10-07T03:04:48.388Z,73.73
2022-10-07T03:07:15.405Z,74.00
2022-10-07T03:09:43.144Z,73.84
2022-10-07T03:12:11.930Z,73.90
2022-10-07T03:14:39.634Z,73.83
2022-10-07T03:17:08.064Z,73.92
2022-10-07T03:19:35.142Z,73.97
2022-10-07T03:22:02.439Z,73.92
2022-10-07T03:24:31.697Z,73.83
2022-10-07T03:26:58.584Z,73.66
2022-10-07T03:29:26.348Z,73.78
2022-10-07T03:31:56.094Z,73.48
2022-10-07T03:34:23.246Z,73.32
2022-10-07T03:36:50.390Z,73.15
2022-10-07T03:39:17.073Z,73.23
2022-10-07T03:41:43.878Z,73.22
2022-10-07T03:44:11.187Z,72.93
2022-10-07T03:46:37.960Z,72.92
2022-10-07T03:49:04.892Z,73.15
2022-10-07T03:51:31.580Z,73.14
2022-10-07T03:53:59.886Z,73.01
2022-10-07T03:56:30.631Z,73.05
2022-10-07T03:58:57.229Z,73.23
2022-10-07T04:01:24.907Z,73.39
2022-10-07T04:03:56.331Z,73.72
2022-10-07T04:06:24.352Z,73.88
2022-10-07T04:08:55.468Z,73.98
2022-10-07T04:11:24.275Z,74.01
2022-10-07T04:13:55.645Z,74.14
2022-10-07T04:16:25.005Z,73.79
2022-10-07T04:18:55.273Z,73.80
2022-10-07T04:21:23.111Z,73.86
2022-10-07T04:23:49.902Z,73.91
2022-10-07T04:26:16.907Z,73.88
2022-10-07T04:28:49.223Z,73.80
2022-10-07T04:31:19.172Z,73.86
2022-10-07T04:33:50.039Z,73.80
2022-10-07T04:36:22.292Z,74.01
2022-10-07T04:38:55.351Z,74.33
2022-10-07T04:41:26.533Z,74.21
2022-10-07T04:43:57.673Z,74.32
2022-10-07T04:46:28.454Z,74.35
2022-10-07T04:49:00.995Z,74.18
2022-10-07T04:51:29.634Z,74.37
2022-10-07T04:53:58.383Z,74.29
2022-10-07T04:56:31.447Z,74.30
2022-10-07T04:59:00.560Z,74.13
2022-10-07T05:01:27.340Z,74.17
2022-10-07T05:03:54.676Z,74.03
2022-10-07T05:06:21.341Z,74.25
2022-10-07T05:08:48.678Z,74.04
2022-10-07T05:11:15.930Z,73.88
2022-10-07T05:13:52.572Z,74.04
2022-10-07T05:16:20.693Z,73.79
2022-10-07T05:18:47.360Z,73.98
2022-10-07T05:21:14.828Z,73.85
2022-10-07T05:23:45.128Z,73.94
2022-10-07T05:26:16.211Z,73.94
2022-10-07T05:28:49.406Z,73.93
2022-10-07T05:31:21.223Z,73.86
2022-10-07T05:33:52.752Z,74.13
2022-10-07T05:36:22.006Z,74.27
2022-10-07T05:38:50.055Z,74.15
2022-10-07T05:41:17.447Z,74.29
2022-10-07T05:43:46.709Z,74.20
2022-10-07T05:46:20.471Z,74.00
2022-10-07T05:48:53.033Z,73.69
2022-10-07T05:51:24.469Z,73.47
2022-10-07T05:53:55.838Z,73.28
2022-10-07T05:56:25.043Z,73.17
2022-10-07T05:58:54.099Z,73.43
2022-10-07T06:01:21.979Z,73.54
2022-10-07T06:03:54.281Z,73.43
2022-10-07T06:06:23.325Z,73.54
2022-10-07T06:08:52.474Z,73.56
2022-10-07T06:11:39.418Z,73.83
2022-10-07T06:14:07.413Z,73.90
2022-10-07T06:16:34.577Z,73.88
2022-10-07T06:19:01.570Z,73.77
2022-10-07T06:21:30.787Z,73.64
2022-10-07T06:24:01.471Z,73.57
2022-10-07T06:26:34.038Z,73.62
2022-10-07T06:29:01.399Z,73.87
2022-10-07T06:31:28.367Z,73.80
2022-10-07T06:34:00.437Z,73.70
2022-10-07T06:36:27.878Z,73.32
2022-10-07T06:38:56.831Z,72.97
2022-10-07T06:41:29.991Z,73.07
2022-10-07T06:44:19.532Z,73.08
2022-10-07T06:46:46.185Z,73.11
2022-10-07T06:49:12.787Z,72.93
2022-10-07T06:51:39.480Z,72.80
2022-10-07T06:54:06.167Z,72.66
2022-10-07T06:56:32.936Z,72.62
2022-10-07T06:58:59.913Z,72.50
2022-10-07T07:01:34.150Z,72.25
2022-10-07T07:04:00.894Z,72.34
2022-10-07T07:06:28.049Z,72.28
2022-10-07T07:08:56.016Z,72.62
2022-10-07T07:11:38.137Z,72.67
2022-10-07T07:14:12.337Z,72.30
2022-10-07T07:16:42.260Z,71.84
2022-10-07T07:19:11.221Z,72.00
2022-10-07T07:21:40.837Z,71.81
2022-10-07T07:24:10.256Z,71.62
2022-10-07T07:26:39.515Z,71.79
2022-10-07T07:29:08.325Z,71.90
2022-10-07T07:31:44.115Z,71.82
2022-10-07T07:34:12.966Z,71.87
2022-10-07T07:36:46.940Z,72.21
2022-10-07T07:39:16.172Z,71.44
2022-10-07T07:41:47.858Z,70.94
2022-10-07T07:44:18.051Z,71.53
2022-10-07T07:46:52.164Z,71.00
2022-10-07T07:49:21.846Z,70.33
2022-10-07T07:51:49.133Z,71.11
2022-10-07T07:54:28.919Z,69.81
2022-10-07T07:56:56.384Z,70.36
2022-10-07T07:59:25.384Z,70.77
2022-10-07T08:01:55.117Z,70.69
2022-10-07T08:04:21.935Z,70.99
2022-10-07T08:06:48.823Z,70.74
2022-10-07T08:09:16.244Z,70.43
2022-10-07T08:11:45.468Z,69.38
2022-10-07T08:14:16.090Z,69.35
2022-10-07T08:16:47.346Z,70.13
2022-10-07T08:19:14.003Z,69.68
2022-10-07T08:21:40.748Z,69.34
2022-10-07T08:24:12.442Z,68.80
2022-10-07T08:26:39.708Z,68.16
2022-10-07T08:29:09.391Z,68.78
2022-10-07T08:31:36.190Z,68.66
2022-10-07T08:34:04.015Z,68.38
2022-10-07T08:36:34.417Z,67.94
2022-10-07T08:39:02.140Z,68.10
2022-10-07T08:41:39.382Z,67.08
2022-10-07T08:44:17.872Z,66.83
2022-10-07T08:46:51.709Z,67.00
2022-10-07T08:49:43.209Z,67.06
2022-10-07T08:52:17.990Z,66.28
2022-10-07T08:54:44.703Z,66.32
2022-10-07T08:57:23.105Z,66.84
2022-10-07T08:59:53.851Z,66.74
2022-10-07T09:03:20.357Z,66.04
2022-10-07T09:05:51.830Z,65.86
2022-10-07T09:08:27.468Z,66.50
2022-10-07T09:10:56.067Z,66.26
2022-10-07T09:13:28.275Z,65.67
2022-10-07T09:16:21.228Z,65.63
2022-10-07T09:18:54.122Z,65.25
2022-10-07T09:21:23.870Z,65.27
2022-10-07T09:23:57.566Z,65.37
2022-10-07T09:26:26.471Z,65.43
2022-10-07T09:28:53.142Z,64.54
2022-10-07T09:31:21.131Z,65.30
2022-10-07T09:33:50.438Z,65.94
2022-10-07T09:36:18.387Z,64.78
2022-10-07T09:38:49.690Z,64.18
2022-10-07T09:41:35.388Z,64.04
2022-10-07T09:44:07.100Z,64.21
2022-10-07T09:46:46.909Z,64.76
2022-10-07T09:49:28.633Z,64.76
2022-10-07T09:52:02.954Z,65.73
2022-10-07T09:54:32.636Z,65.27
2022-10-07T09:57:01.029Z,64.59
2022-10-07T09:59:29.900Z,64.69
2022-10-07T10:02:15.425Z,64.57
2022-10-07T10:04:51.110Z,64.17
2022-10-07T10:07:17.680Z,64.00
2022-10-07T10:09:52.321Z,64.37
2022-10-07T10:12:20.691Z,64.72
2022-10-07T10:15:00.725Z,63.89
2022-10-07T10:17:34.637Z,65.29
2022-10-07T10:20:24.050Z,64.83
2022-10-07T10:22:52.134Z,64.50
2022-10-07T10:25:56.158Z,64.49
2022-10-07T10:28:38.430Z,64.15
2022-10-07T10:31:18.476Z,64.22
2022-10-07T10:33:54.461Z,63.59
2022-10-07T10:36:23.004Z,64.27
2022-10-07T10:39:04.348Z,63.69
2022-10-07T10:41:45.204Z,64.41
2022-10-07T10:44:32.361Z,63.78
2022-10-07T10:47:21.365Z,64.27
2022-10-07T10:50:22.156Z,64.44
2022-10-07T10:53:09.096Z,63.24
2022-10-07T10:56:08.301Z,64.66
2022-10-07T10:58:52.921Z,63.32
2022-10-07T11:01:32.906Z,63.88
2022-10-07T11:04:08.787Z,61.92
2022-10-07T11:06:37.250Z,63.12
2022-10-07T11:09:05.976Z,63.08
2022-10-07T11:11:34.436Z,63.71
2022-10-07T11:14:05.739Z,62.49
2022-10-07T11:16:39.935Z,62.97
2022-10-07T11:19:09.295Z,63.36
2022-10-07T11:21:48.703Z,63.76
2022-10-07T11:24:19.971Z,64.24
2022-10-07T11:26:56.544Z,63.76
2022-10-07T11:29:29.251Z,63.64
2022-10-07T11:32:24.426Z,63.00
2022-10-07T11:35:03.393Z,63.06
2022-10-07T11:38:01.729Z,63.22
2022-10-07T11:40:31.338Z,63.68
2022-10-07T11:43:06.466Z,63.15
2022-10-07T11:45:42.601Z,62.88
2022-10-07T11:48:18.594Z,62.60
2022-10-07T11:51:41.119Z,62.59
2022-10-07T11:54:19.144Z,63.25
2022-10-07T11:56:54.139Z,63.09
2022-10-07T11:59:38.257Z,63.27
2022-10-07T12:02:05.321Z,64.53
2022-10-07T12:04:35.355Z,63.27
2022-10-07T12:07:33.056Z,63.64
2022-10-07T12:10:03.414Z,62.39
2022-10-07T12:12:45.264Z,62.58
2022-10-07T12:15:42.164Z,62.17
2022-10-07T12:18:17.146Z,62.87
2022-10-07T12:20:50.162Z,62.42
2022-10-07T12:23:20.477Z,62.39
2022-10-07T12:26:04.208Z,62.89
2022-10-07T12:28:36.769Z,62.51
2022-10-07T12:31:23.699Z,62.95
2022-10-07T12:34:00.211Z,62.45
2022-10-07T12:36:27.903Z,64.03
2022-10-07T12:38:55.950Z,62.49
2022-10-07T12:41:35.365Z,62.30
2022-10-07T12:44:31.575Z,63.26
2022-10-07T12:47:02.036Z,63.02
2022-10-07T12:49:43.024Z,63.09
2022-10-07T12:52:19.057Z,62.35
2022-10-07T12:54:55.128Z,62.53
2022-10-07T12:57:23.565Z,62.21
2022-10-07T12:59:59.109Z,62.31
2022-10-07T13:02:34.387Z,62.48
2022-10-07T13:05:16.078Z,62.36
2022-10-07T13:08:01.160Z,61.78
2022-10-07T13:10:37.744Z,62.10
2022-10-07T13:13:19.176Z,62.65
2022-10-07T13:15:57.495Z,62.48
2022-10-07T13:18:35.606Z,62.71
2022-10-07T13:21:19.934Z,62.85
2022-10-07T13:23:54.470Z,62.76
2022-10-07T13:26:22.307Z,62.10
2022-10-07T13:28:51.188Z,62.31
2022-10-07T13:31:23.503Z,62.44
2022-10-07T13:33:50.501Z,62.84
2022-10-07T13:36:20.114Z,62.88
2022-10-07T13:38:48.487Z,62.91
2022-10-07T13:41:20.211Z,62.39
2022-10-07T13:43:52.572Z,62.53
2022-10-07T13:46:19.362Z,62.58
2022-10-07T13:48:46.258Z,63.25
2022-10-07T13:51:42.376Z,62.72
2022-10-07T13:54:20.138Z,62.87
2022-10-07T13:56:48.737Z,62.20
2022-10-07T13:59:18.644Z,62.46
2022-10-07T14:01:48.660Z,62.44
2022-10-07T14:04:20.004Z,62.46
2022-10-07T14:06:56.102Z,62.66
2022-10-07T14:09:31.715Z,62.18
2022-10-07T14:12:09.418Z,62.21
2022-10-07T14:14:40.958Z,62.97
2022-10-07T14:17:11.346Z,63.38
2022-10-07T14:19:39.344Z,63.38
2022-10-07T14:22:19.837Z,63.42
2022-10-07T14:24:54.787Z,64.15
2022-10-07T14:27:41.800Z,63.96
2022-10-07T14:30:57.157Z,64.40
2022-10-07T14:33:49.225Z,65.03
2022-10-07T14:36:25.031Z,64.79
2022-10-07T14:38:52.873Z,64.52
2022-10-07T14:41:21.612Z,65.04
2022-10-07T14:43:49.884Z,65.28
2022-10-07T14:46:23.307Z,64.41
2022-10-07T14:48:50.920Z,63.55
2022-10-07T14:51:23.544Z,64.55
2022-10-07T14:53:52.475Z,64.54
2022-10-07T14:56:25.376Z,64.63
2022-10-07T14:58:52.227Z,64.32
2022-10-07T15:01:19.757Z,63.90
2022-10-07T15:03:48.711Z,63.52
2022-10-07T15:06:16.833Z,64.70
2022-10-07T15:08:44.464Z,64.87
2022-10-07T15:11:15.504Z,64.89
2022-10-07T15:13:51.720Z,64.40
2022-10-07T15:16:24.950Z,64.30
2022-10-07T15:18:53.171Z,64.72
2022-10-07T15:21:21.872Z,64.88
2022-10-07T15:23:54.822Z,65.83
2022-10-07T15:26:24.301Z,66.12
2022-10-07T15:28:56.420Z,66.21
2022-10-07T15:31:25.081Z,66.38
2022-10-07T15:33:51.965Z,66.25
2022-10-07T15:36:18.689Z,66.43
2022-10-07T15:38:45.922Z,66.65
2022-10-07T15:41:29.176Z,66.01
2022-10-07T15:43:58.556Z,66.83
2022-10-07T15:46:25.474Z,66.87
2022-10-07T15:48:56.319Z,67.19
2022-10-07T15:51:24.670Z,67.59
2022-10-07T15:53:52.091Z,67.60
2022-10-07T15:56:18.845Z,67.71
2022-10-07T15:58:46.156Z,67.73
2022-10-07T16:01:12.809Z,67.75
2022-10-07T16:03:44.499Z,68.38
2022-10-07T16:06:20.792Z,68.69
2022-10-07T16:08:49.735Z,68.61
2022-10-07T16:11:17.131Z,68.37
2022-10-07T16:13:45.309Z,68.74
2022-10-07T16:16:14.434Z,68.62
2022-10-07T16:18:43.346Z,68.88
2022-10-07T16:21:18.080Z,69.27
2022-10-07T16:23:46.256Z,69.47
2022-10-07T16:26:18.236Z,69.90
2022-10-07T16:29:05.581Z,70.07
2022-10-07T16:31:33.711Z,70.33
2022-10-07T16:34:00.483Z,70.65
2022-10-07T16:36:27.161Z,70.98
2022-10-07T16:38:54.348Z,71.22
2022-10-07T16:41:21.572Z,71.38
2022-10-07T16:43:48.231Z,71.23
2022-10-07T16:46:19.752Z,71.48
2022-10-07T16:48:48.258Z,71.69
2022-10-07T16:51:22.926Z,71.68
2022-10-07T16:53:52.922Z,71.79
2022-10-07T16:56:20.431Z,72.13
2022-10-07T16:58:47.305Z,72.32
2022-10-07T17:01:16.934Z,72.88
2022-10-07T17:03:46.878Z,72.80
2022-10-07T17:06:14.829Z,72.47
2022-10-07T17:08:48.349Z,72.26
2022-10-07T17:11:29.439Z,72.31
2022-10-07T17:14:00.553Z,72.26
2022-10-07T17:16:29.885Z,72.27
2022-10-07T17:18:56.890Z,72.48
2022-10-07T17:21:23.535Z,72.46
2022-10-07T17:23:50.438Z,72.60
2022-10-07T17:26:17.474Z,73.18
2022-10-07T17:28:44.212Z,73.20
2022-10-07T17:31:12.987Z,73.10
2022-10-07T17:33:41.084Z,73.01
2022-10-07T17:36:08.707Z,73.19
2022-10-07T17:38:43.741Z,73.27
2022-10-07T17:41:31.528Z,73.47
2022-10-07T17:44:00.026Z,73.39
2022-10-07T17:46:32.680Z,73.72
2022-10-07T17:49:00.921Z,73.72
2022-10-07T17:51:30.006Z,73.93
2022-10-07T17:53:59.621Z,73.84
2022-10-07T17:56:27.576Z,73.79
2022-10-07T17:58:54.316Z,74.04
2022-10-07T18:01:24.207Z,74.30
2022-10-07T18:03:52.678Z,74.33
2022-10-07T18:06:19.810Z,74.41
2022-10-07T18:08:48.176Z,74.33
2022-10-07T18:11:18.116Z,74.50
2022-10-07T18:14:04.005Z,74.22
2022-10-07T18:16:34.871Z,74.43
2022-10-07T18:19:01.951Z,74.39
2022-10-07T18:21:30.342Z,74.46
2022-10-07T18:23:57.651Z,74.28
2022-10-07T18:26:24.656Z,74.19
2022-10-07T18:28:51.377Z,74.22
2022-10-07T18:31:18.651Z,74.56
2022-10-07T18:33:46.303Z,74.82
2022-10-07T18:36:15.367Z,74.80
2022-10-07T18:38:43.637Z,74.98
2022-10-07T18:41:15.616Z,74.82
2022-10-07T18:43:43.601Z,74.79
2022-10-07T18:46:15.940Z,74.76
2022-10-07T18:48:43.389Z,74.75
2022-10-07T18:51:11.535Z,74.90
2022-10-07T18:53:39.624Z,74.86
2022-10-07T18:56:09.022Z,74.66
2022-10-07T18:58:37.531Z,74.59
2022-10-07T19:01:12.855Z,74.67
2022-10-07T19:03:40.192Z,74.62
2022-10-07T19:06:08.999Z,74.79
2022-10-07T19:08:35.972Z,75.01
2022-10-07T19:11:04.563Z,74.85
2022-10-07T19:13:50.383Z,74.75
2022-10-07T19:16:19.474Z,74.72
2022-10-07T19:18:47.488Z,74.47
2022-10-07T19:21:15.372Z,74.43
2022-10-07T19:23:42.123Z,74.64
2022-10-07T19:26:09.022Z,74.69
2022-10-07T19:28:37.719Z,74.74
2022-10-07T19:31:18.958Z,74.77
2022-10-07T19:33:47.322Z,75.07
2022-10-07T19:36:14.682Z,75.03
2022-10-07T19:38:44.279Z,74.90
2022-10-07T19:41:15.225Z,74.82
2022-10-07T19:43:42.969Z,74.54
2022-10-07T19:46:11.139Z,74.59
2022-10-07T19:48:38.691Z,74.44
2022-10-07T19:51:08.718Z,74.51
2022-10-07T19:53:36.057Z,74.58
2022-10-07T19:56:11.794Z,74.26
2022-10-07T19:58:38.585Z,74.42
2022-10-07T20:01:07.474Z,74.48
2022-10-07T20:03:35.040Z,74.09
2022-10-07T20:06:07.879Z,73.87
2022-10-07T20:08:40.249Z,74.05
2022-10-07T20:11:07.828Z,74.13
2022-10-07T20:13:38.440Z,74.04
2022-10-07T20:16:19.239Z,74.06
2022-10-07T20:18:47.976Z,74.10
2022-10-07T20:21:17.611Z,73.97
2022-10-07T20:23:45.693Z,74.18
2022-10-07T20:26:19.052Z,74.28
2022-10-07T20:28:47.724Z,74.28
2022-10-07T20:31:16.598Z,73.95
2022-10-07T20:33:48.266Z,73.88
2022-10-07T20:36:17.722Z,73.88
2022-10-07T20:39:02.987Z,73.84
2022-10-07T20:41:49.240Z,73.69
2022-10-07T20:44:17.651Z,73.77
2022-10-07T20:46:44.835Z,73.79
2022-10-07T20:49:22.736Z,74.20
2022-10-07T20:51:54.770Z,73.91
2022-10-07T20:54:22.920Z,73.89
2022-10-07T20:56:51.880Z,73.87
2022-10-07T20:59:19.160Z,73.96
2022-10-07T21:01:48.583Z,73.73
2022-10-07T21:04:15.744Z,73.71
2022-10-07T21:06:43.242Z,73.76
2022-10-07T21:09:10.761Z,73.93
2022-10-07T21:11:37.765Z,73.98
2022-10-07T21:14:04.810Z,74.08
2022-10-07T21:16:32.452Z,74.47
2022-10-07T21:18:59.374Z,74.53
2022-10-07T21:21:26.144Z,74.52
2022-10-07T21:23:53.055Z,74.44
2022-10-07T21:26:20.633Z,74.37
2022-10-07T21:28:48.441Z,74.49
2022-10-07T21:31:17.677Z,74.45
2022-10-07T21:33:46.598Z,74.45
2022-10-07T21:36:19.143Z,74.60
2022-10-07T21:38:46.116Z,74.76
2022-10-07T21:41:13.974Z,74.73
2022-10-07T21:43:41.991Z,74.53
2022-10-07T21:46:09.238Z,74.78
2022-10-07T21:48:35.970Z,74.83
2022-10-07T21:51:08.647Z,74.96
2022-10-07T21:53:36.333Z,75.09
2022-10-07T21:56:08.228Z,75.12
2022-10-07T21:58:35.902Z,74.92
2022-10-07T22:01:03.806Z,75.21
2022-10-07T22:03:30.492Z,75.60
2022-10-07T22:06:11.978Z,75.36
2022-10-07T22:08:39.439Z,75.40
2022-10-07T22:11:16.021Z,75.74
2022-10-07T22:13:51.649Z,75.65
2022-10-07T22:16:19.286Z,75.72
2022-10-07T22:18:50.528Z,75.85
2022-10-07T22:21:19.537Z,75.89
2022-10-07T22:23:50.983Z,76.14
2022-10-07T22:26:19.888Z,75.84
2022-10-07T22:28:46.940Z,75.87
2022-10-07T22:31:15.008Z,76.09
2022-10-07T22:33:42.061Z,76.19
2022-10-07T22:36:11.264Z,76.19
2022-10-07T22:38:38.262Z,75.96
2022-10-07T22:41:10.456Z,75.94
2022-10-07T22:43:40.646Z,75.86
2022-10-07T22:46:07.481Z,75.52
2022-10-07T22:48:34.505Z,75.40
2022-10-07T22:51:08.560Z,75.58
2022-10-07T22:53:36.348Z,75.60
2022-10-07T22:56:07.799Z,75.54
2022-10-07T22:58:34.816Z,75.53
2022-10-07T23:01:15.186Z,75.43
2022-10-07T23:03:44.068Z,75.20
2022-10-07T23:06:12.468Z,75.33
2022-10-07T23:08:39.485Z,75.64
2022-10-07T23:11:07.515Z,75.81
2022-10-07T23:13:36.024Z,75.93
2022-10-07T23:16:05.905Z,75.90
2022-10-07T23:18:33.118Z,75.94
2022-10-07T23:20:59.812Z,75.91
2022-10-07T23:23:27.517Z,75.64
2022-10-07T23:25:54.502Z,75.69
2022-10-07T23:28:22.295Z,75.72
2022-10-07T23:30:50.744Z,75.55
2022-10-07T23:33:17.482Z,75.57
2022-10-07T23:35:44.158Z,75.40
2022-10-07T23:38:12.767Z,75.33
2022-10-07T23:40:39.413Z,75.56
2022-10-07T23:43:06.088Z,75.49
2022-10-07T23:45:33.258Z,75.20
2022-10-07T23:48:00.260Z,75.28
2022-10-07T23:50:27.857Z,75.31
2022-10-07T23:52:54.617Z,75.27
2022-10-07T23:55:21.303Z,75.50
2022-10-07T23:57:48.104Z,75.57
